Weather observations for the past three days for
Brookhaven-Lincoln County Airport
Imperial (Metric)
Date Time (cdt) Wind (mph) Vis. (mi.) Weather Sky Cond. Temperature (ºF) Relative Humidity Wind Chill (°F) Heat Index (°F) Pressure Precipitation (in)
Air Dwpt 6 hour altimeter (in) sea level (mb) 1 hr 3 hr 6 hr
Max. Min.
08 07:15 Calm 8.00 Fair CLR 0 0 0% 30.01 0.0
08 06:55 Calm 7.00 Fair CLR 0 0 0% 30.02 0.0
08 06:35 Calm 7.00 Fair CLR 0 0 0% 30.01 0.0
08 06:15 Calm 5.00 Fair CLR 0 0 0% 30.01 0.0
08 05:55 Calm 5.00 Fair CLR 0 0 0% 30.01 0.0
08 05:35 Calm 6.00 Fair CLR 0 0 0% 30 0.0
08 05:15 Calm 3.00 Fair CLR 0 0 0% 30 0.0
08 04:55 Calm 8.00 Fair CLR 0 0 0% 30 0.0
08 04:35 Calm 4.00 Fair CLR 0 0 0% 30 0.0
08 04:15 Calm 5.00 Fair CLR 0 0 0% 29.98 0.0
08 03:55 Calm 6.00 Fair CLR 0 0 0% 29.98 0.0
08 03:35 Calm 6.00 Fair CLR 0 0 0% 29.98 0.0
08 03:15 Calm 8.00 Partly Cloudy FEW075 FEW090 SCT110 0 0 0% 29.99 0.0
08 02:55 Calm 9.00 Mostly Cloudy FEW075 BKN100 BKN120 0 0 0% 29.97 0.0
08 02:35 Calm 6.00 Mostly Cloudy FEW070 BKN095 BKN110 0 0 0% 29.96 0.0
08 02:15 Calm 6.00 Partly Cloudy FEW100 SCT120 0 0 0% 29.98 0.0
08 01:55 Calm 7.00 Fair CLR 0 0 0% 30 0.0
08 01:35 Calm 9.00 Fair CLR 0 0 0% 30.01 0.0
08 01:15 Calm 8.00 Fair CLR 0 0 0% 30.02 0.0
08 00:55 Calm 8.00 Fair CLR 0 0 0% 30 0.0
08 00:35 Calm 9.00 Fair CLR 0 0 0% 30.01 0.0
08 00:15 Calm 7.00 Fair CLR 0 0 0% 30.01 0.0
07 23:55 Calm 9.00 Fair CLR 0 0 0% 30.01 0.0
07 23:35 Calm 10.00 A Few Clouds FEW100 0 0 0% 30.02 0.0
07 23:15 Calm 8.00 Partly Cloudy SCT100 SCT120 0 0 0% 30 0.0
07 22:55 Calm 9.00 Fair CLR 0 0 0% 30.02 0.0
07 22:35 Calm 9.00 Fair CLR 0 0 0% 30.02 0.0
07 22:15 Calm 9.00 Fair CLR 0 0 0% 30.03 0.0
07 21:55 Calm 9.00 Fair CLR 0 0 0% 30.01 0.0
07 21:35 Calm 9.00 Fair CLR 0 0 0% 30.02 0.0
07 21:15 Calm 6.00 A Few Clouds FEW100 0 0 0% 30.01 0.0
07 20:55 Calm 9.00 Fair CLR 0 0 0% 30.01 0.0
07 20:35 Calm 9.00 Fair CLR 0 0 0% 30 0.0
07 20:15 Calm 9.00 Fair CLR 0 0 0% 29.99 0.0
07 19:55 Calm 9.00 Fair CLR 0 0 0% 29.99 0.0
07 19:35 Calm 9.00 Fair CLR 0 0 0% 30 0.0
07 19:15 Calm 9.00 Fair CLR 0 0 0% 30 0.0
07 18:55 Calm 10.00 Fair CLR 0 0 0% 30 0.0
07 18:35 Calm 9.00 Fair CLR 0 0 0% 30 0.0
07 18:15 Calm 10.00 Mostly Cloudy BKN016 0 0 0% 30 0.0
07 17:55 N 3 9.00 Overcast OVC016 0 0 0% 30 0.0
07 17:35 NW 3 10.00 Overcast OVC016 0 0 0% 30 0.0
07 17:15 Calm 9.00 Overcast OVC014 0 0 0% 30.01 0.0
07 16:55 NW 5 10.00 Overcast OVC014 0 0 0% 30.01 0.0
07 16:35 NW 3 10.00 Overcast OVC013 0 0 0% 30.01 0.0
07 16:15 N 6 9.00 Overcast OVC012 0 0 0% 30 0.0
07 15:15 N 5 9.00 Overcast OVC012 0 0 0% 30 0.0
07 14:55 NW 7 10.00 Overcast OVC011 0 0 0% 30.01 0.0
07 14:35 NW 6 10.00 Overcast OVC011 0 0 0% 30.01 0.0
07 14:15 NW 5 9.00 Overcast OVC009 0 0 0% 30.01 0.0
07 13:55 NW 7 10.00 Overcast OVC009 0 0 0% 30.01 0.0
07 13:35 N 8 9.00 Overcast OVC010 0 0 0% 30.01 0.0
07 13:15 N 7 9.00 Overcast OVC008 0 0 0% 30.02 0.0
07 12:55 NW 6 8.00 Overcast OVC007 0 0 0% 30.02 0.0
07 12:35 NW 5 9.00 Overcast OVC007 0 0 0% 30.03 0.0
07 12:15 NW 5 9.00 Overcast OVC006 0 0 0% 30.02 0.0
07 11:55 NW 7 9.00 Overcast OVC006 0 0 0% 30.02 0.0
07 11:35 Vrbl 5 9.00 Overcast OVC006 0 0 0% 30.03 0.0
07 11:15 Vrbl 6 9.00 Overcast OVC006 0 0 0% 30.03 0.0
07 10:55 NW 6 9.00 Overcast OVC005 0 0 0% 30.03 0.0
07 10:35 NW 5 9.00 Overcast OVC005 0 0 0% 30.03 0.0
07 10:15 NW 5 8.00 Overcast OVC005 0 0 0% 30.03 0.0
07 09:55 Calm 9.00 Overcast OVC005 0 0 0% 30.02 0.0
07 09:35 N 5 10.00 Overcast OVC005 0 0 0% 30.02 0.0
07 09:15 N 5 8.00 Overcast OVC004 0 0 0% 30.01 0.0
07 08:55 N 5 7.00 Overcast OVC003 0 0 0% 30.01 0.0
07 08:35 N 3 3.00 Overcast OVC003 0 0 0% 30.01 0.0
07 08:15 N 3 1.25 Overcast OVC003 0 0 0% 30.01 0.0
07 07:55 N 5 0.75 Overcast OVC003 0 0 0% 30.01 0.0
07 07:35 NW 5 0.50 Overcast OVC003 0 0 0% 30 0.0
07 07:15 N 7 0.50 Overcast OVC003 0 0 0% 29.99 0.0
07 06:55 NW 8 0.50 Overcast OVC003 0 0 0% 29.98 0.0
07 06:35 NW 6 0.75 Overcast OVC003 0 0 0% 29.97 0.0
07 06:15 Vrbl 7 1.75 Overcast OVC003 0 0 0% 29.97 0.0
07 05:55 NW 5 1.50 Overcast OVC003 0 0 0% 29.96 0.0
07 05:35 NW 8 1.75 Overcast OVC003 0 0 0% 29.95 0.0
07 05:15 NW 6 G 12 1.00 Overcast OVC002 0 0 0% 29.94 0.0
07 04:55 NW 6 2.00 Overcast OVC003 0 0 0% 29.94 0.0
07 04:35 N 5 3.00 Overcast OVC003 0 0 0% 29.93 0.0
07 04:15 NW 6 4.00 Overcast OVC003 0 0 0% 29.93 0.0
07 03:55 Vrbl 3 5.00 Overcast OVC003 0 0 0% 29.92 0.0 0.06
07 03:35 NW 6 4.00 Overcast OVC003 0 0 0% 29.92 0.0
07 03:15 NW 6 6.00 Overcast OVC003 0 0 0% 29.91 0.0
07 02:55 NW 7 9.00 Overcast OVC003 0 0 0% 29.91 0.0 0.16
07 02:35 Vrbl 6 10.00 Overcast OVC004 0 0 0% 29.92 0.0
07 02:15 NW 7 9.00 Overcast OVC005 0 0 0% 29.92 0.0
07 01:55 NW 8 7.00 Overcast OVC005 0 0 0% 29.91 0.0 0.25
07 01:35 N 8 4.00 Overcast OVC004 0 0 0% 29.91 0.0
07 01:15 NW 7 4.00 Overcast OVC005 0 0 0% 29.92 0.0
07 00:55 NW 5 2.50 Overcast OVC004 0 0 0% 29.92 0.0 0.26
07 00:35 Calm 1.25 Overcast OVC003 0 0 0% 29.91 0.0
07 00:15 Calm 1.00 Overcast OVC003 0 0 0% 29.91 0.0
06 23:55 NW 5 G 12 7.00 Overcast OVC004 0 0 0% 29.89 0.0 0.28
06 23:35 Vrbl 7 8.00 Overcast OVC004 0 0 0% 29.91 0.0
06 23:15 W 6 6.00 Overcast BKN004 BKN016 OVC024 0 0 0% 29.9 0.0
06 22:55 N 8 G 14 6.00 Overcast BKN004 BKN008 OVC023 0 0 0% 29.88 0.0 0.33
06 22:35 N 6 1.25 Overcast OVC003 0 0 0% 29.89 0.0
06 22:15 N 10 1.50 Overcast OVC002 0 0 0% 29.87 0.0
06 21:55 N 8 6.00 Overcast OVC004 0 0 0% 29.88 0.0 0.48
06 21:35 Calm 8.00 Overcast BKN006 BKN009 OVC043 0 0 0% 29.85 0.0
06 21:15 Calm 9.00 Overcast SCT008 BKN042 OVC049 0 0 0% 29.86 0.0
06 20:55 Calm 7.00 Overcast SCT003 BKN041 OVC046 0 0 0% 29.87 0.0 0.71
06 20:35 W 7 4.00 Overcast FEW003 SCT021 OVC049 0 0 0% 29.86 0.0
06 20:15 Calm 0.50 Overcast OVC002 0 0 0% 29.86 0.0
06 19:55 W 10 0.25 Overcast OVC003 0 0 0% 29.86 0.0 0.21
06 19:35 Calm 1.25 Overcast OVC004 0 0 0% 29.83 0.0
06 19:15 Calm 0.75 Overcast BKN005 BKN013 OVC017 0 0 0% 29.84 0.0
06 18:55 Calm 1.50 Overcast SCT024 OVC028 0 0 0% 29.85 0.0
06 18:35 Calm 4.00 Overcast FEW013 BKN025 OVC043 0 0 0% 29.83 0.0
06 18:15 Calm 4.00 Overcast SCT015 BKN024 OVC050 0 0 0% 29.83 0.0
06 17:55 Calm 5.00 Overcast SCT017 BKN024 OVC050 0 0 0% 29.83 0.0 0.09
06 17:35 Calm 3.00 Overcast BKN017 BKN023 OVC095 0 0 0% 29.83 0.0
06 17:15 Calm 1.25 Overcast SCT025 BKN046 OVC060 0 0 0% 29.83 0.0
06 16:55 Calm 2.00 Mostly Cloudy SCT046 SCT055 BKN070 0 0 0% 29.86 0.0
06 16:35 Calm 2.50 Mostly Cloudy FEW042 FEW050 BKN075 0 0 0% 29.85 0.0
06 16:15 Calm 3.00 Overcast FEW014 BKN041 OVC070 0 0 0% 29.87 0.0
06 15:55 Calm 2.50 Overcast SCT014 BKN021 OVC041 0 0 0% 29.88 0.0
06 15:35 Calm 4.00 Overcast FEW022 SCT027 OVC035 0 0 0% 29.88 0.0
06 15:15 Vrbl 3 9.00 Mostly Cloudy FEW015 BKN036 BKN044 0 0 0% 29.89 0.0
06 14:55 S 5 7.00 Mostly Cloudy FEW015 BKN034 BKN046 0 0 0% 29.9 0.0
06 14:35 S 5 7.00 Overcast OVC034 0 0 0% 29.91 0.0
06 14:15 S 5 7.00 Overcast OVC032 0 0 0% 29.92 0.0
06 13:55 S 6 6.00 Overcast FEW010 SCT020 OVC030 0 0 0% 29.93 0.0
06 13:35 S 5 6.00 Overcast SCT011 OVC017 0 0 0% 29.94 0.0
06 13:15 S 5 5.00 Overcast FEW013 OVC019 0 0 0% 29.94 0.0
06 12:55 S 6 6.00 Overcast BKN013 BKN017 OVC023 0 0 0% 29.94 0.0
06 12:35 S 7 7.00 Overcast FEW008 BKN014 OVC020 0 0 0% 29.95 0.0
06 12:15 SW 6 6.00 Mostly Cloudy BKN009 BKN013 BKN018 0 0 0% 29.96 0.0
06 11:55 S 5 5.00 Overcast OVC008 0 0 0% 29.97 0.0
06 11:35 S 3 8.00 Overcast OVC006 0 0 0% 29.97 0.0
06 11:15 S 3 6.00 Overcast OVC005 0 0 0% 29.96 0.0
06 10:55 Calm 4.00 Mostly Cloudy BKN003 BKN007 0 0 0% 29.96 0.0
06 10:35 Calm 1.75 Overcast OVC004 0 0 0% 29.95 0.0
06 10:15 Calm 2.00 Overcast OVC004 0 0 0% 29.95 0.0
06 09:55 Calm 1.50 Overcast OVC003 0 0 0% 29.95 0.0
06 09:35 Calm 1.25 Overcast OVC004 0 0 0% 29.95 0.0
06 09:15 Calm 2.00 Overcast OVC005 0 0 0% 29.95 0.0
06 08:55 Calm 1.50 Overcast OVC005 0 0 0% 29.95 0.0
06 08:35 Calm 2.50 Overcast OVC005 0 0 0% 29.94 0.0
06 08:15 Calm 4.00 Overcast OVC006 0 0 0% 29.94 0.0
06 07:55 Calm 4.00 Overcast OVC006 0 0 0% 29.93 0.0
06 07:35 S 5 5.00 Overcast OVC005 0 0 0% 29.92 0.0
06 07:15 S 5 4.00 Overcast OVC006 0 0 0% 29.91 0.0
06 06:55 S 5 6.00 Overcast OVC007 0 0 0% 29.9 0.0
06 06:35 S 5 7.00 Overcast OVC009 0 0 0% 29.9 0.0
06 06:15 S 3 8.00 Overcast OVC009 0 0 0% 29.89 0.0
06 05:55 Calm 8.00 Overcast OVC010 0 0 0% 29.89 0.0
06 05:35 Calm 9.00 Overcast BKN010 OVC014 0 0 0% 29.89 0.0
06 05:15 S 5 9.00 Overcast BKN013 OVC040 0 0 0% 29.88 0.0
06 04:55 S 5 8.00 Overcast BKN011 OVC016 0 0 0% 29.89 0.0
06 04:35 S 6 9.00 Overcast BKN013 OVC024 0 0 0% 29.89 0.0
06 04:15 S 5 9.00 Overcast BKN012 OVC016 0 0 0% 29.89 0.0
06 03:55 S 5 9.00 Overcast BKN012 OVC017 0 0 0% 29.89 0.0
06 03:35 S 6 9.00 Overcast BKN012 BKN018 OVC026 0 0 0% 29.89 0.0
06 03:15 S 8 9.00 Overcast BKN013 BKN019 OVC025 0 0 0% 29.88 0.0
06 02:55 S 10 9.00 Overcast BKN013 OVC022 0 0 0% 29.87 0.0
06 02:35 S 10 9.00 Overcast BKN011 BKN018 OVC024 0 0 0% 29.88 0.0
06 02:15 S 12 9.00 Overcast BKN010 OVC016 0 0 0% 29.88 0.0
06 01:55 S 8 9.00 Overcast OVC009 0 0 0% 29.88 0.0
06 01:35 S 8 9.00 Overcast BKN009 OVC013 0 0 0% 29.89 0.0
06 01:15 S 7 9.00 Partly Cloudy SCT010 0 0 0% 29.89 0.0
06 00:55 S 7 10.00 Fair CLR 0 0 0% 29.89 0.0
06 00:35 S 8 10.00 Fair CLR 0 0 0% 29.89 0.0
06 00:15 S 5 9.00 Fair CLR 0 0 0% 29.9 0.0
05 23:55 S 6 G 12 10.00 Fair CLR 0 0 0% 29.89 0.0
05 23:35 S 8 10.00 Fair CLR 0 0 0% 29.89 0.0
05 23:15 S 8 9.00 Partly Cloudy FEW031 SCT049 0 0 0% 29.89 0.0
05 22:55 S 10 G 16 9.00 A Few Clouds FEW047 0 0 0% 29.89 0.0
05 22:35 S 9 10.00 Fair CLR 0 0 0% 29.89 0.0
05 22:15 S 9 10.00 Partly Cloudy SCT027 SCT037 0 0 0% 29.89 0.0
05 21:55 SE 8 10.00 Mostly Cloudy SCT024 BKN029 BKN034 0 0 0% 29.88 0.0
05 21:35 S 8 9.00 Overcast SCT024 BKN029 OVC040 0 0 0% 29.88 0.0
05 21:15 S 6 9.00 Overcast BKN025 OVC037 0 0 0% 29.87 0.0
05 20:55 SE 6 10.00 Overcast BKN027 BKN035 OVC060 0 0 0% 29.87 0.0
05 20:35 S 6 9.00 Overcast SCT032 SCT041 OVC060 0 0 0% 29.87 0.0
05 20:15 SE 6 10.00 Overcast OVC060 0 0 0% 29.86 0.0
05 19:55 SE 7 9.00 Overcast FEW044 OVC060 0 0 0% 29.86 0.0
05 19:35 S 6 G 13 10.00 Overcast SCT046 OVC060 0 0 0% 29.85 0.0
05 19:15 S 7 9.00 Overcast SCT042 OVC060 0 0 0% 29.85 0.0
05 18:55 SE 5 9.00 Overcast OVC042 0 0 0% 29.85 0.0
05 18:35 SE 6 9.00 Overcast BKN042 OVC060 0 0 0% 29.85 0.0
05 18:15 S 5 10.00 Overcast OVC042 0 0 0% 29.85 0.0
05 17:55 S 7 9.00 Overcast OVC041 0 0 0% 29.86 0.0
05 17:35 SE 5 10.00 Overcast OVC040 0 0 0% 29.86 0.0
05 17:15 S 7 9.00 Overcast OVC043 0 0 0% 29.86 0.0
05 16:55 S 7 9.00 Overcast BKN040 OVC046 0 0 0% 29.87 0.0
05 16:35 S 5 9.00 Overcast BKN039 OVC047 0 0 0% 29.87 0.0
05 16:15 S 6 9.00 Overcast FEW040 OVC047 0 0 0% 29.87 0.0
05 15:55 S 8 9.00 Overcast BKN042 OVC049 0 0 0% 29.87 0.0
05 15:35 S 8 9.00 Overcast FEW036 FEW041 OVC049 0 0 0% 29.87 0.0
05 15:15 S 10 9.00 Overcast FEW036 SCT043 OVC049 0 0 0% 29.87 0.0
05 14:55 S 10 8.00 Overcast BKN041 OVC049 0 0 0% 29.88 0.0
05 14:35 S 9 9.00 Overcast OVC039 0 0 0% 29.89 0.0
05 14:15 S 10 G 16 10.00 Overcast OVC040 0 0 0% 29.9 0.0
05 13:55 S 13 9.00 Overcast OVC039 0 0 0% 29.9 0.0
05 13:35 S 13 8.00 Mostly Cloudy BKN037 BKN044 0 0 0% 29.9 0.0
05 13:15 S 12 G 18 9.00 Partly Cloudy SCT037 0 0 0% 29.9 0.0
05 12:55 S 13 9.00 Fair CLR 0 0 0% 29.9 0.0
05 12:35 S 12 G 17 9.00 Fair CLR 0 0 0% 29.91 0.0
05 12:15 S 12 G 18 9.00 Fair CLR 0 0 0% 29.91 0.0
05 11:55 S 12 9.00 Fair CLR 0 0 0% 29.92 0.0
05 11:35 S 8 9.00 Partly Cloudy SCT028 0 0 0% 29.92 0.0
05 11:15 S 12 G 18 8.00 Mostly Cloudy SCT027 BKN046 0 0 0% 29.93 0.0
05 10:55 S 9 9.00 Overcast FEW024 OVC045 0 0 0% 29.94 0.0
05 10:35 S 8 10.00 Overcast FEW025 OVC045 0 0 0% 29.93 0.0
05 10:15 S 12 9.00 Overcast OVC045 0 0 0% 29.93 0.0
05 09:55 S 8 G 15 10.00 Mostly Cloudy BKN045 0 0 0% 29.94 0.0
05 09:35 S 7 9.00 A Few Clouds FEW045 0 0 0% 29.94 0.0
05 09:15 S 9 9.00 Fair CLR 0 0 0% 29.94 0.0
05 08:55 S 12 9.00 Fair CLR 0 0 0% 29.94 0.0
05 08:35 S 6 10.00 A Few Clouds FEW046 0 0 0% 29.93 0.0
05 08:15 S 8 10.00 Fair CLR 0 0 0% 29.94 0.0
05 07:55 S 7 9.00 Fair CLR 0 0 0% 29.93 0.0
05 07:35 S 6 9.00 Fair CLR 0 0 0% 29.93 0.0
Date Time (cdt) Wind (mph) Vis. (mi.) Weather Sky Cond. Air Dwpt Max. Min. Relative Humidity Wind Chill (°F) Heat Index (°F) altimeter (in) sea level (mb) 1 hr 3 hr 6 hr
6 hour
Temperature (ºF) Pressure Precipitation (in)